Time;durP1;ratioP1;P1;durP2;ratioP2;P2;SDS_P1;SDS_P2;PMS_P1;PMS_P2;Temp;Humidity;BMP_temperature;BMP_pressure;BME280_temperature;BME280_humidity;BME280_pressure;Samples;Min_cycle;Max_cycle;Signal;HPM_P1;HPM_P2
2023/04/12 00:00:28;;;;;;;;;;;6.85;3.25;;;;;;2669192;76;20703;-92
2023/04/12 00:03:56;;;;;;;;;;;6.85;3.16;;;;;;2669149;76;20530;-92
2023/04/12 00:07:25;;;;;;;;;;;6.91;3.34;;;;;;2668586;76;21035;-90
2023/04/12 00:10:53;;;;;;;;;;;6.93;3.26;;;;;;2669141;76;20444;-92
2023/04/12 00:14:21;;;;;;;;;;;6.89;3.45;;;;;;2669244;76;20469;-92
2023/04/12 00:17:49;;;;;;;;;;;6.93;3.58;;;;;;2668615;76;20450;-92
2023/04/12 00:21:18;;;;;;;;;;;7.02;3.79;;;;;;2667890;76;20469;-92
2023/04/12 00:24:46;;;;;;;;;;;7.12;3.80;;;;;;2669343;76;20946;-91
2023/04/12 00:28:14;;;;;;;;;;;7.18;3.70;;;;;;2667935;76;20440;-91
2023/04/12 00:31:42;;;;;;;;;;;7.22;3.67;;;;;;2669322;76;20464;-91
2023/04/12 00:35:11;;;;;;;;;;;7.24;3.62;;;;;;2668999;76;20351;-92
2023/04/12 00:38:39;;;;;;;;;;;7.27;3.74;;;;;;2668904;76;20327;-91
2023/04/12 00:42:10;;;;;;;;;;;7.29;3.85;;;;;;2669265;76;20480;-91
2023/04/12 00:45:38;;;;;;;;;;;7.35;3.85;;;;;;2669278;76;20916;-91
2023/04/12 00:49:06;;;;;;;;;;;7.39;3.99;;;;;;2668561;76;20437;-91
2023/04/12 00:52:35;;;;;;;;;;;7.46;3.96;;;;;;2668452;76;20829;-91
2023/04/12 00:56:03;;;;;;;;;;;7.52;3.93;;;;;;2669429;76;20444;-91
2023/04/12 00:59:31;;;;;;;;;;;7.57;3.98;;;;;;2669257;76;20452;-92
2023/04/12 01:03:07;;;;;;;;;;;7.59;3.92;;;;;;2668621;76;20459;-92
2023/04/12 01:06:29;;;;;;;;;;;7.61;4.00;;;;;;2667808;76;20488;-93
2023/04/12 01:09:57;;;;;;;;;;;7.62;3.93;;;;;;2668149;76;20930;-92
2023/04/12 01:13:25;;;;;;;;;;;7.61;4.03;;;;;;2668328;76;21017;-92
2023/04/12 01:16:55;;;;;;;;;;;7.62;4.26;;;;;;2668512;76;20498;-92
2023/04/12 01:20:23;;;;;;;;;;;7.73;4.28;;;;;;2668152;76;21080;-92
2023/04/12 01:23:51;;;;;;;;;;;7.81;4.29;;;;;;2668501;76;20901;-91
2023/04/12 01:27:28;;;;;;;;;;;7.83;4.30;;;;;;2668515;76;20456;-92
2023/04/12 01:30:49;;;;;;;;;;;7.86;4.24;;;;;;2668495;76;20481;-91
2023/04/12 01:34:18;;;;;;;;;;;7.86;4.33;;;;;;2668116;76;20482;-92
2023/04/12 01:37:46;;;;;;;;;;;7.87;4.41;;;;;;2667891;76;20485;-92
2023/04/12 01:41:14;;;;;;;;;;;7.90;4.35;;;;;;2668287;76;20436;-92
2023/04/12 01:44:42;;;;;;;;;;;7.90;4.44;;;;;;2668421;76;20951;-92
2023/04/12 01:48:10;;;;;;;;;;;7.82;4.14;;;;;;2668637;76;20514;-90
2023/04/12 01:51:39;;;;;;;;;;;7.69;4.20;;;;;;2668637;76;20469;-92
2023/04/12 01:55:07;;;;;;;;;;;7.64;4.57;;;;;;2668625;76;20522;-92
2023/04/12 01:58:35;;;;;;;;;;;7.62;4.63;;;;;;2668312;76;20453;-91
2023/04/12 02:02:04;;;;;;;;;;;7.62;4.80;;;;;;2668449;76;21409;-92
2023/04/12 02:05:32;;;;;;;;;;;7.52;4.85;;;;;;2667968;76;20358;-91
2023/04/12 02:09:01;;;;;;;;;;;7.50;5.21;;;;;;2669053;76;20312;-91
2023/04/12 02:12:29;;;;;;;;;;;7.44;5.25;;;;;;2668694;76;20412;-93
2023/04/12 02:15:58;;;;;;;;;;;7.35;5.50;;;;;;2669330;76;20476;-91
2023/04/12 02:19:26;;;;;;;;;;;7.30;5.69;;;;;;2668983;76;20488;-89
2023/04/12 02:22:54;;;;;;;;;;;7.22;5.93;;;;;;2669272;76;20493;-90
2023/04/12 02:26:24;;;;;;;;;;;7.19;6.41;;;;;;2669201;76;20441;-91
2023/04/12 02:29:52;;;;;;;;;;;7.17;6.66;;;;;;2669132;76;20444;-91
2023/04/12 02:33:29;;;;;;;;;;;7.14;6.84;;;;;;2669004;76;20444;-91
2023/04/12 02:36:57;;;;;;;;;;;7.16;6.97;;;;;;2668808;76;20355;-91
2023/04/12 02:40:26;;;;;;;;;;;7.14;7.13;;;;;;2668876;76;20420;-92
2023/04/12 02:43:54;;;;;;;;;;;7.13;7.42;;;;;;2669185;76;20992;-91
2023/04/12 02:47:27;;;;;;;;;;;7.09;7.85;;;;;;2668596;76;20525;-92
2023/04/12 02:50:52;;;;;;;;;;;7.04;8.46;;;;;;2669555;76;20483;-92
2023/04/12 02:54:20;;;;;;;;;;;7.02;8.61;;;;;;2668947;76;20452;-92
2023/04/12 02:57:51;;;;;;;;;;;7.02;9.05;;;;;;2668387;76;21007;-93
2023/04/12 03:01:19;;;;;;;;;;;7.04;9.15;;;;;;2666404;76;20925;-92
2023/04/12 03:04:49;;;;;;;;;;;7.07;9.37;;;;;;2668122;76;20480;-92
2023/04/12 03:08:17;;;;;;;;;;;7.15;9.37;;;;;;2668833;76;20443;-92
2023/04/12 03:11:45;;;;;;;;;;;7.23;9.34;;;;;;2669006;76;20425;-92
2023/04/12 03:15:16;;;;;;;;;;;7.19;9.46;;;;;;2668488;76;20437;-93
2023/04/12 03:18:45;;;;;;;;;;;7.19;9.45;;;;;;2668939;76;20417;-92
2023/04/12 03:22:13;;;;;;;;;;;7.18;9.57;;;;;;2669817;76;20316;-93
2023/04/12 03:25:45;;;;;;;;;;;7.23;9.73;;;;;;2668909;76;20485;-92
2023/04/12 03:29:13;;;;;;;;;;;7.19;9.83;;;;;;2669220;76;20459;-92
2023/04/12 03:32:41;;;;;;;;;;;7.19;9.96;;;;;;2669509;76;20490;-92
2023/04/12 03:36:09;;;;;;;;;;;7.24;10.14;;;;;;2669852;76;20494;-92
2023/04/12 03:39:37;;;;;;;;;;;7.25;10.15;;;;;;2669853;76;20530;-92
2023/04/12 03:43:05;;;;;;;;;;;7.24;10.33;;;;;;2669210;76;20447;-92
2023/04/12 03:46:36;;;;;;;;;;;7.24;10.46;;;;;;2669333;76;21279;-93
2023/04/12 03:50:09;;;;;;;;;;;7.17;10.84;;;;;;2669188;76;21212;-91
2023/04/12 03:53:37;;;;;;;;;;;7.22;10.94;;;;;;2669399;76;20506;-93
2023/04/12 03:57:05;;;;;;;;;;;7.31;10.94;;;;;;2669104;76;20457;-93
2023/04/12 04:00:33;;;;;;;;;;;7.33;10.95;;;;;;2669059;76;20491;-94
2023/04/12 04:04:01;;;;;;;;;;;7.35;10.98;;;;;;2669458;76;20505;-94
2023/04/12 04:07:30;;;;;;;;;;;7.32;11.06;;;;;;2669516;76;20495;-93
2023/04/12 04:11:01;;;;;;;;;;;7.27;11.23;;;;;;2669601;76;20503;-94
2023/04/12 04:14:35;;;;;;;;;;;7.28;11.44;;;;;;2671113;76;20476;-93
2023/04/12 04:18:04;;;;;;;;;;;7.29;11.54;;;;;;2671311;76;20476;-94
2023/04/12 04:21:35;;;;;;;;;;;7.35;11.59;;;;;;2672216;76;20486;-94
2023/04/12 04:25:06;;;;;;;;;;;7.39;11.57;;;;;;2672253;76;20459;-94
2023/04/12 04:28:43;;;;;;;;;;;7.38;11.68;;;;;;2673411;76;21004;-95
2023/04/12 04:32:09;;;;;;;;;;;7.40;11.72;;;;;;2674124;76;20448;-94
2023/04/12 04:35:53;;;;;;;;;;;7.45;11.77;;;;;;2677006;76;20564;-95
2023/04/12 04:39:16;;;;;;;;;;;7.47;11.74;;;;;;2679460;76;20786;-95
2023/04/12 04:42:58;;;;;;;;;;;7.56;11.80;;;;;;2680622;76;21044;-95
2023/04/12 04:46:29;;;;;;;;;;;7.60;11.77;;;;;;2680449;76;20440;-94
2023/04/12 04:49:58;;;;;;;;;;;7.65;11.85;;;;;;2679971;76;20461;-95
2023/04/12 04:53:26;;;;;;;;;;;7.69;11.81;;;;;;2681778;76;20272;-95
2023/04/12 04:56:58;;;;;;;;;;;7.75;11.94;;;;;;2681134;76;20690;-94
2023/04/12 05:00:30;;;;;;;;;;;7.82;11.84;;;;;;2680600;76;20457;-95
2023/04/12 05:04:10;;;;;;;;;;;7.84;11.94;;;;;;2678843;76;20321;-94
2023/04/12 05:07:46;;;;;;;;;;;7.91;11.91;;;;;;2680124;76;20331;-96
2023/04/12 05:11:11;;;;;;;;;;;7.97;11.97;;;;;;2681073;76;20419;-96
2023/04/12 05:14:45;;;;;;;;;;;7.99;12.00;;;;;;2681579;76;20457;-96
2023/04/12 05:18:12;;;;;;;;;;;8.00;12.04;;;;;;2682655;76;20456;-96
2023/04/12 05:21:40;;;;;;;;;;;8.06;12.24;;;;;;2682195;76;20412;-96
2023/04/12 05:25:09;;;;;;;;;;;8.15;12.29;;;;;;2681994;76;20280;-95
2023/04/12 05:32:15;;;;;;;;;;;8.28;12.39;;;;;;2678305;76;20353;-93
2023/04/12 05:35:46;;;;;;;;;;;8.32;12.57;;;;;;2678816;76;20326;-93
2023/04/12 05:39:14;;;;;;;;;;;8.34;12.65;;;;;;2675238;76;20455;-91
2023/04/12 05:42:42;;;;;;;;;;;8.44;12.77;;;;;;2672415;76;20412;-91
2023/04/12 05:46:11;;;;;;;;;;;8.49;12.89;;;;;;2672634;76;20443;-91
2023/04/12 05:49:39;;;;;;;;;;;8.53;12.93;;;;;;2672415;76;20304;-90
2023/04/12 05:53:09;;;;;;;;;;;8.50;13.11;;;;;;2671517;76;20340;-91
2023/04/12 05:56:37;;;;;;;;;;;8.59;13.37;;;;;;2671629;76;20435;-91
2023/04/12 06:00:17;;;;;;;;;;;8.62;13.41;;;;;;2671401;76;20338;-90
2023/04/12 06:03:45;;;;;;;;;;;8.59;13.49;;;;;;2671881;76;20966;-91
2023/04/12 06:07:16;;;;;;;;;;;8.66;13.56;;;;;;2671596;76;20739;-91
2023/04/12 06:10:43;;;;;;;;;;;8.73;13.62;;;;;;2671862;76;20895;-90
2023/04/12 06:14:11;;;;;;;;;;;8.83;13.73;;;;;;2671737;76;21010;-90
2023/04/12 06:17:39;;;;;;;;;;;8.94;13.68;;;;;;2671460;76;20959;-90
2023/04/12 06:21:07;;;;;;;;;;;9.01;13.69;;;;;;2671320;76;20977;-91
2023/04/12 06:24:35;;;;;;;;;;;9.07;13.77;;;;;;2671804;76;20442;-90
2023/04/12 06:28:04;;;;;;;;;;;9.14;13.78;;;;;;2671971;76;20546;-91
2023/04/12 06:31:32;;;;;;;;;;;9.23;13.91;;;;;;2672062;76;20420;-91
2023/04/12 06:35:00;;;;;;;;;;;9.29;13.68;;;;;;2672282;76;20463;-90
2023/04/12 06:38:28;;;;;;;;;;;9.53;13.85;;;;;;2671907;76;20447;-89
2023/04/12 06:41:56;;;;;;;;;;;9.76;13.76;;;;;;2672053;76;20432;-91
2023/04/12 06:45:25;;;;;;;;;;;9.93;13.62;;;;;;2670570;76;20439;-90
2023/04/12 06:48:53;;;;;;;;;;;10.07;13.55;;;;;;2671361;76;20427;-89
2023/04/12 06:52:21;;;;;;;;;;;10.27;13.46;;;;;;2671095;76;20851;-90
2023/04/12 06:55:49;;;;;;;;;;;10.38;13.52;;;;;;2670614;76;20902;-90
2023/04/12 06:59:17;;;;;;;;;;;10.44;13.56;;;;;;2671186;76;20349;-90
2023/04/12 07:02:50;;;;;;;;;;;10.49;13.55;;;;;;2671416;76;20447;-90
2023/04/12 07:06:15;;;;;;;;;;;10.67;13.61;;;;;;2671171;76;20436;-89
2023/04/12 07:09:43;;;;;;;;;;;10.93;13.42;;;;;;2670074;76;20449;-90
2023/04/12 07:13:11;;;;;;;;;;;11.16;13.30;;;;;;2671161;76;20469;-91
2023/04/12 07:16:39;;;;;;;;;;;11.49;13.46;;;;;;2670431;76;20431;-90
2023/04/12 07:20:07;;;;;;;;;;;11.67;13.23;;;;;;2671172;76;20455;-90
2023/04/12 07:23:36;;;;;;;;;;;11.69;12.78;;;;;;2670324;76;20497;-91
2023/04/12 07:27:04;;;;;;;;;;;11.68;12.73;;;;;;2671338;76;20432;-91
2023/04/12 07:30:32;;;;;;;;;;;11.87;12.94;;;;;;2671333;76;20557;-91
2023/04/12 07:34:00;;;;;;;;;;;12.02;13.19;;;;;;2671273;76;20938;-91
2023/04/12 07:37:28;;;;;;;;;;;12.20;13.45;;;;;;2671704;76;20456;-90
2023/04/12 07:40:56;;;;;;;;;;;12.42;13.20;;;;;;2670917;76;20447;-91
2023/04/12 07:44:24;;;;;;;;;;;12.57;12.39;;;;;;2672053;76;20450;-91
2023/04/12 07:47:52;;;;;;;;;;;12.61;12.55;;;;;;2671965;76;20428;-92
2023/04/12 07:51:20;;;;;;;;;;;12.72;12.39;;;;;;2671475;76;20414;-91
2023/04/12 07:54:48;;;;;;;;;;;12.91;12.67;;;;;;2672031;76;20324;-92
2023/04/12 07:58:16;;;;;;;;;;;13.11;12.88;;;;;;2669999;76;20444;-92
2023/04/12 08:01:45;;;;;;;;;;;13.20;12.48;;;;;;2671266;76;20444;-92
2023/04/12 08:05:13;;;;;;;;;;;13.20;12.81;;;;;;2672172;76;20418;-92
2023/04/12 08:08:41;;;;;;;;;;;13.23;13.13;;;;;;2671439;76;20439;-91
2023/04/12 08:12:10;;;;;;;;;;;13.04;12.61;;;;;;2671002;76;20325;-91
2023/04/12 08:15:38;;;;;;;;;;;12.84;12.31;;;;;;2670684;76;20428;-92
2023/04/12 08:19:06;;;;;;;;;;;12.95;12.75;;;;;;2672388;76;20426;-92
2023/04/12 08:22:35;;;;;;;;;;;13.30;13.01;;;;;;2672095;76;20427;-91
2023/04/12 08:26:03;;;;;;;;;;;13.33;12.23;;;;;;2670835;76;20863;-91
2023/04/12 08:29:33;;;;;;;;;;;13.30;12.30;;;;;;2668886;76;20718;-91
2023/04/12 08:33:01;;;;;;;;;;;13.07;12.18;;;;;;2671415;76;20418;-92
2023/04/12 08:36:29;;;;;;;;;;;12.97;12.01;;;;;;2671570;76;20446;-91
2023/04/12 08:39:57;;;;;;;;;;;13.12;12.62;;;;;;2671720;76;20924;-91
2023/04/12 08:43:25;;;;;;;;;;;13.43;12.95;;;;;;2672093;76;20862;-92
2023/04/12 08:46:53;;;;;;;;;;;13.62;12.61;;;;;;2671092;76;20485;-92
2023/04/12 08:50:21;;;;;;;;;;;13.98;12.68;;;;;;2671205;76;20481;-91
2023/04/12 08:53:50;;;;;;;;;;;14.11;11.46;;;;;;2670958;76;20439;-91
2023/04/12 08:57:19;;;;;;;;;;;14.28;11.28;;;;;;2670734;76;21220;-92
2023/04/12 09:00:47;;;;;;;;;;;14.24;11.20;;;;;;2671568;76;20418;-92
2023/04/12 09:04:15;;;;;;;;;;;14.17;11.20;;;;;;2671443;76;20469;-92
2023/04/12 09:07:43;;;;;;;;;;;13.70;11.28;;;;;;2671184;76;20412;-92
2023/04/12 09:11:11;;;;;;;;;;;13.38;11.07;;;;;;2671624;76;20427;-92
2023/04/12 09:14:39;;;;;;;;;;;13.15;12.05;;;;;;2670917;76;20320;-91
2023/04/12 09:18:07;;;;;;;;;;;13.25;11.46;;;;;;2671623;76;20312;-91
2023/04/12 09:21:36;;;;;;;;;;;13.86;12.14;;;;;;2671631;76;20310;-91
2023/04/12 09:25:04;;;;;;;;;;;14.65;11.20;;;;;;2671515;76;20301;-91
2023/04/12 09:28:32;;;;;;;;;;;15.38;10.51;;;;;;2671503;76;20404;-92
2023/04/12 09:32:00;;;;;;;;;;;15.93;9.83;;;;;;2672295;76;20362;-93
2023/04/12 09:35:28;;;;;;;;;;;16.15;9.17;;;;;;2671201;76;20311;-92
2023/04/12 09:38:56;;;;;;;;;;;16.24;9.67;;;;;;2671211;76;20457;-91
2023/04/12 09:42:24;;;;;;;;;;;16.35;8.47;;;;;;2669810;76;20444;-90
2023/04/12 09:45:52;;;;;;;;;;;16.79;9.98;;;;;;2672546;76;20315;-92
2023/04/12 09:49:21;;;;;;;;;;;17.00;9.21;;;;;;2671357;76;20332;-91
2023/04/12 09:52:49;;;;;;;;;;;16.86;7.91;;;;;;2672450;76;20456;-91
2023/04/12 09:56:17;;;;;;;;;;;16.88;6.66;;;;;;2671530;76;20450;-91
2023/04/12 09:59:45;;;;;;;;;;;17.01;6.07;;;;;;2671243;76;20427;-91
2023/04/12 10:03:14;;;;;;;;;;;17.31;6.15;;;;;;2670443;76;21425;-89
2023/04/12 10:06:42;;;;;;;;;;;17.77;6.42;;;;;;2671616;76;20457;-91
2023/04/12 10:10:11;;;;;;;;;;;18.04;6.08;;;;;;2669165;76;20479;-89
2023/04/12 10:13:39;;;;;;;;;;;18.43;6.32;;;;;;2670855;76;20962;-89
2023/04/12 10:17:07;;;;;;;;;;;18.65;4.54;;;;;;2671633;76;20446;-90
2023/04/12 10:20:35;;;;;;;;;;;18.80;5.00;;;;;;2670677;76;20950;-91
2023/04/12 10:24:05;;;;;;;;;;;18.73;3.18;;;;;;2670476;76;20315;-91
2023/04/12 10:27:39;;;;;;;;;;;19.09;3.90;;;;;;2669779;76;20467;-91
2023/04/12 10:31:04;;;;;;;;;;;18.79;2.46;;;;;;2671147;76;20446;-92
2023/04/12 10:34:37;;;;;;;;;;;18.63;1.23;;;;;;2670862;76;20913;-91
2023/04/12 10:38:05;;;;;;;;;;;18.92;2.93;;;;;;2670354;76;20539;-92
2023/04/12 10:41:33;;;;;;;;;;;19.21;1.66;;;;;;2669867;76;20445;-91
2023/04/12 10:45:01;;;;;;;;;;;19.32;1.53;;;;;;2669544;76;20442;-91
2023/04/12 10:48:30;;;;;;;;;;;19.41;3.00;;;;;;2669868;76;20477;-91
2023/04/12 10:51:58;;;;;;;;;;;19.77;3.23;;;;;;2669953;76;20537;-90
2023/04/12 10:55:26;;;;;;;;;;;19.90;1.06;;;;;;2670100;76;20944;-90
2023/04/12 10:58:55;;;;;;;;;;;19.58;-1.28;;;;;;2668209;76;20464;-91
2023/04/12 11:02:25;;;;;;;;;;;19.18;-2.35;;;;;;2669427;76;20908;-90
2023/04/12 11:05:53;;;;;;;;;;;19.97;0.14;;;;;;2669570;76;20486;-90
2023/04/12 11:09:22;;;;;;;;;;;20.39;-0.99;;;;;;2670985;76;20478;-91
2023/04/12 11:12:50;;;;;;;;;;;20.45;-4.15;;;;;;2668663;76;20781;-90
2023/04/12 11:16:18;;;;;;;;;;;20.76;-2.34;;;;;;2669324;76;20503;-90
2023/04/12 11:19:48;;;;;;;;;;;20.59;-3.51;;;;;;2669992;76;21057;-91
2023/04/12 11:23:16;;;;;;;;;;;20.48;-4.07;;;;;;2670110;76;20783;-90
2023/04/12 11:26:44;;;;;;;;;;;20.79;-3.23;;;;;;2669837;76;20460;-91
2023/04/12 11:30:12;;;;;;;;;;;21.42;-1.76;;;;;;2669538;76;20874;-91
2023/04/12 11:33:41;;;;;;;;;;;21.69;-1.83;;;;;;2669758;76;20474;-90
2023/04/12 11:37:09;;;;;;;;;;;21.48;-1.10;;;;;;2669461;76;20538;-91
2023/04/12 11:40:37;;;;;;;;;;;21.29;-0.67;;;;;;2671185;76;20495;-93
2023/04/12 11:44:05;;;;;;;;;;;19.85;-4.21;;;;;;2671673;76;20324;-92
2023/04/12 11:47:36;;;;;;;;;;;19.74;-3.02;;;;;;2672252;76;20444;-93
2023/04/12 11:51:05;;;;;;;;;;;18.81;-3.40;;;;;;2671769;76;21989;-93
2023/04/12 11:54:33;;;;;;;;;;;18.37;-4.88;;;;;;2669884;76;20444;-92
2023/04/12 11:58:01;;;;;;;;;;;18.57;-4.67;;;;;;2671831;76;20481;-92
2023/04/12 12:01:36;;;;;;;;;;;18.65;-4.75;;;;;;2671291;76;20318;-92
2023/04/12 12:05:03;;;;;;;;;;;18.83;-3.43;;;;;;2671612;76;20846;-91
2023/04/12 12:08:34;;;;;;;;;;;18.54;-1.84;;;;;;2670853;76;20467;-92
2023/04/12 12:12:05;;;;;;;;;;;18.29;-2.32;;;;;;2671929;76;20438;-92
2023/04/12 12:15:38;;;;;;;;;;;18.02;-0.29;;;;;;2671311;76;20486;-91
2023/04/12 12:19:04;;;;;;;;;;;17.64;-0.99;;;;;;2670576;76;20449;-89
2023/04/12 12:22:34;;;;;;;;;;;18.66;0.52;;;;;;2671714;76;20437;-91
2023/04/12 12:26:08;;;;;;;;;;;19.14;-0.09;;;;;;2671855;76;20919;-90
2023/04/12 12:29:36;;;;;;;;;;;19.24;-0.93;;;;;;2671658;76;20439;-92
2023/04/12 12:33:04;;;;;;;;;;;19.66;-0.06;;;;;;2671438;76;20469;-91
2023/04/12 12:36:35;;;;;;;;;;;19.99;-0.52;;;;;;2672150;76;20981;-91
2023/04/12 12:40:23;;;;;;;;;;;20.32;-1.38;;;;;;2670761;76;20484;-91
2023/04/12 12:43:45;;;;;;;;;;;20.69;-2.37;;;;;;2670954;76;20900;-92
2023/04/12 12:47:15;;;;;;;;;;;20.89;-4.31;;;;;;2671536;76;21260;-92
2023/04/12 12:50:45;;;;;;;;;;;21.39;-3.32;;;;;;2672318;76;20345;-91
2023/04/12 12:54:17;;;;;;;;;;;21.51;-5.24;;;;;;2671209;76;20448;-91
2023/04/12 12:57:45;;;;;;;;;;;21.49;-4.74;;;;;;2671612;76;20450;-93
2023/04/12 13:01:13;;;;;;;;;;;21.59;-2.18;;;;;;2671690;76;20913;-90
2023/04/12 13:04:44;;;;;;;;;;;21.29;-0.83;;;;;;2670774;76;20468;-89
2023/04/12 13:08:12;;;;;;;;;;;20.73;-3.21;;;;;;2671063;76;21011;-89
2023/04/12 13:11:43;;;;;;;;;;;20.92;-0.48;;;;;;2669303;76;20471;-93
2023/04/12 13:15:12;;;;;;;;;;;20.80;0.00;;;;;;2670866;76;21614;-88
2023/04/12 13:18:41;;;;;;;;;;;20.80;1.56;;;;;;2671738;76;20471;-92
2023/04/12 13:22:09;;;;;;;;;;;21.03;2.03;;;;;;2671915;76;20487;-90
2023/04/12 13:25:37;;;;;;;;;;;21.15;1.87;;;;;;2669595;76;20371;-91
2023/04/12 13:29:10;;;;;;;;;;;20.85;2.64;;;;;;2671569;76;20482;-91
2023/04/12 13:32:36;;;;;;;;;;;20.17;3.12;;;;;;2671768;76;20348;-90
2023/04/12 13:36:09;;;;;;;;;;;19.76;4.65;;;;;;2671529;76;20931;-90
2023/04/12 13:39:43;;;;;;;;;;;19.25;4.72;;;;;;2671332;76;20380;-90
2023/04/12 13:43:22;;;;;;;;;;;18.94;5.29;;;;;;2670981;76;20651;-90
2023/04/12 13:46:47;;;;;;;;;;;18.42;5.04;;;;;;2670672;76;20466;-90
2023/04/12 13:50:16;;;;;;;;;;;18.64;5.63;;;;;;2671790;76;20442;-91
2023/04/12 13:53:44;;;;;;;;;;;19.22;5.88;;;;;;2670809;76;20461;-92
2023/04/12 13:57:12;;;;;;;;;;;19.53;4.72;;;;;;2670613;76;20467;-90
2023/04/12 14:00:41;;;;;;;;;;;20.25;5.28;;;;;;2671402;76;20452;-90
2023/04/12 14:04:09;;;;;;;;;;;20.37;5.67;;;;;;2671446;76;20447;-89
2023/04/12 14:07:40;;;;;;;;;;;20.18;6.05;;;;;;2669656;76;20436;-89
2023/04/12 14:11:09;;;;;;;;;;;19.92;5.64;;;;;;2671027;76;20422;-90
2023/04/12 14:14:37;;;;;;;;;;;19.82;4.74;;;;;;2671489;76;20413;-94
2023/04/12 14:18:08;;;;;;;;;;;19.72;5.35;;;;;;2671997;76;20470;-90
2023/04/12 14:21:37;;;;;;;;;;;19.70;5.85;;;;;;2674502;76;20431;-93
2023/04/12 14:25:07;;;;;;;;;;;19.56;6.06;;;;;;2672274;76;20464;-94
2023/04/12 14:28:38;;;;;;;;;;;19.42;5.51;;;;;;2674965;76;20335;-89
2023/04/12 14:32:11;;;;;;;;;;;19.43;3.80;;;;;;2674977;76;20473;-91
2023/04/12 14:35:43;;;;;;;;;;;19.29;4.45;;;;;;2671240;76;20422;-88
2023/04/12 14:39:12;;;;;;;;;;;19.44;5.66;;;;;;2670924;76;20514;-91
2023/04/12 14:42:40;;;;;;;;;;;19.32;5.73;;;;;;2672159;76;20428;-92
2023/04/12 14:46:08;;;;;;;;;;;19.09;5.73;;;;;;2671032;76;20908;-90
2023/04/12 14:49:37;;;;;;;;;;;18.67;4.34;;;;;;2669753;76;20364;-89
2023/04/12 14:53:08;;;;;;;;;;;17.36;-4.42;;;;;;2670698;76;20506;-91
2023/04/12 14:56:39;;;;;;;;;;;17.30;-2.92;;;;;;2671888;76;20837;-91
2023/04/12 15:00:12;;;;;;;;;;;17.56;-2.61;;;;;;2671247;76;20353;-90
2023/04/12 15:03:38;;;;;;;;;;;17.61;-3.99;;;;;;2671515;76;20742;-91
2023/04/12 15:07:06;;;;;;;;;;;17.66;-2.64;;;;;;2670335;76;20440;-91
2023/04/12 15:10:35;;;;;;;;;;;17.88;-5.05;;;;;;2670301;76;20546;-89
2023/04/12 15:14:06;;;;;;;;;;;18.19;-4.37;;;;;;2671295;76;20468;-91
2023/04/12 15:17:34;;;;;;;;;;;18.59;-2.43;;;;;;2671413;76;20423;-90
2023/04/12 15:21:07;;;;;;;;;;;18.61;-2.00;;;;;;2670958;76;20537;-91
2023/04/12 15:24:33;;;;;;;;;;;18.86;-0.91;;;;;;2671992;76;20481;-89
2023/04/12 15:28:13;;;;;;;;;;;18.91;-0.35;;;;;;2671209;76;20523;-90
2023/04/12 15:32:01;;;;;;;;;;;;;;;;;;;;;
2023/04/12 15:35:24;;;;;;;;;;;18.35;-3.73;;;;;;2669821;76;20529;-92
2023/04/12 15:38:57;;;;;;;;;;;18.07;117.14;;;;;;2668504;76;20443;-92
2023/04/12 15:42:32;;;;;;;;;;;;;;;;;;;;;
2023/04/12 15:45:58;;;;;;;;;;;17.96;117.19;;;;;;2667890;76;20495;-93
2023/04/12 15:49:29;;;;;;;;;;;17.18;114.26;;;;;;2670229;76;20558;-93
2023/04/12 15:52:58;;;;;;;;;;;16.67;114.42;;;;;;2669410;76;21029;-91
2023/04/12 15:56:30;;;;;;;;;;;16.54;115.42;;;;;;2668001;76;20453;-92
2023/04/12 16:00:11;;;;;;;;;;;16.54;116.38;;;;;;2668280;76;20489;-92
2023/04/12 16:03:35;;;;;;;;;;;16.54;117.39;;;;;;2669385;76;20944;-92
2023/04/12 16:07:04;;;;;;;;;;;16.39;117.42;;;;;;2668119;76;20484;-91
2023/04/12 16:10:33;;;;;;;;;;;16.54;118.38;;;;;;2668918;76;20436;-92
2023/04/12 16:14:01;;;;;;;;;;;16.40;117.87;;;;;;2669465;76;20457;-92
2023/04/12 16:17:29;;;;;;;;;;;16.43;118.42;;;;;;2669411;76;20507;-92
2023/04/12 16:20:57;;;;;;;;;;;16.55;-5.62;;;;;;2669945;76;20444;-92
2023/04/12 16:24:27;;;;;;;;;;;16.59;-5.38;;;;;;2670307;76;20449;-92
2023/04/12 16:28:01;;;;;;;;;;;16.65;118.97;;;;;;2669689;76;21038;-92
2023/04/12 16:31:28;;;;;;;;;;;16.65;117.46;;;;;;2670212;76;20425;-93
2023/04/12 16:34:56;;;;;;;;;;;16.79;117.35;;;;;;2672191;76;20470;-92
2023/04/12 16:38:25;;;;;;;;;;;16.66;117.31;;;;;;2671437;76;20478;-91
2023/04/12 16:41:53;;;;;;;;;;;16.60;118.43;;;;;;2671238;76;20478;-93
2023/04/12 16:45:22;;;;;;;;;;;16.47;-5.74;;;;;;2671390;76;20452;-91
2023/04/12 16:48:50;;;;;;;;;;;16.14;-5.67;;;;;;2670449;76;20503;-92
2023/04/12 16:52:21;;;;;;;;;;;15.92;-5.89;;;;;;2670137;76;20428;-92
2023/04/12 16:55:48;;;;;;;;;;;15.97;-4.83;;;;;;2670721;76;20658;-92
2023/04/12 16:59:16;;;;;;;;;;;15.83;-4.67;;;;;;2671474;76;20463;-91
2023/04/12 17:02:45;;;;;;;;;;;15.61;-4.86;;;;;;2670405;76;20482;-91
2023/04/12 17:06:13;;;;;;;;;;;15.59;-4.19;;;;;;2670438;76;20458;-92
2023/04/12 17:09:41;;;;;;;;;;;15.46;-4.34;;;;;;2670158;76;20483;-91
2023/04/12 17:13:09;;;;;;;;;;;15.36;-3.60;;;;;;2670647;76;20472;-91
2023/04/12 17:16:38;;;;;;;;;;;15.28;-3.12;;;;;;2670162;76;20446;-91
2023/04/12 17:20:09;;;;;;;;;;;15.15;-2.91;;;;;;2671213;76;20500;-92
2023/04/12 17:23:36;;;;;;;;;;;15.00;-3.07;;;;;;2670875;76;20452;-91
2023/04/12 17:27:04;;;;;;;;;;;15.01;-2.47;;;;;;2670458;76;20449;-90
2023/04/12 17:30:32;;;;;;;;;;;14.83;-2.18;;;;;;2671178;76;21201;-91
2023/04/12 17:34:00;;;;;;;;;;;14.77;-1.61;;;;;;2671160;76;20535;-92
2023/04/12 17:37:28;;;;;;;;;;;14.64;-1.24;;;;;;2670310;76;20453;-91
2023/04/12 17:40:56;;;;;;;;;;;14.58;-0.99;;;;;;2670913;76;21285;-91
2023/04/12 17:44:28;;;;;;;;;;;14.41;-1.02;;;;;;2671310;76;20485;-91
2023/04/12 17:47:56;;;;;;;;;;;14.38;-0.75;;;;;;2670909;76;21096;-91
2023/04/12 17:51:25;;;;;;;;;;;14.25;-0.87;;;;;;2670723;76;20996;-91
2023/04/12 17:54:53;;;;;;;;;;;14.12;-1.08;;;;;;2670614;76;20965;-91
2023/04/12 17:58:21;;;;;;;;;;;13.86;-0.67;;;;;;2670111;76;20952;-91
2023/04/12 18:01:50;;;;;;;;;;;13.95;-0.13;;;;;;2671125;76;20506;-91
2023/04/12 18:05:18;;;;;;;;;;;13.81;-0.32;;;;;;2670234;76;20413;-91
2023/04/12 18:08:46;;;;;;;;;;;13.48;-0.04;;;;;;2669776;76;20460;-91
2023/04/12 18:12:14;;;;;;;;;;;13.18;0.96;;;;;;2673509;76;20437;-91
2023/04/12 18:15:42;;;;;;;;;;;13.25;1.90;;;;;;2670468;76;20429;-91
2023/04/12 18:19:12;;;;;;;;;;;13.26;0.36;;;;;;2669503;76;21435;-91
2023/04/12 18:22:40;;;;;;;;;;;13.14;-0.27;;;;;;2670544;76;20560;-91
2023/04/12 18:26:08;;;;;;;;;;;13.18;-0.32;;;;;;2670115;76;20821;-91
2023/04/12 18:29:36;;;;;;;;;;;13.07;-0.13;;;;;;2669028;76;20470;-91
2023/04/12 18:33:06;;;;;;;;;;;12.42;4.16;;;;;;2671239;76;20457;-91
2023/04/12 18:36:38;;;;;;;;;;;12.26;5.70;;;;;;2671371;76;20577;-92
2023/04/12 18:40:06;;;;;;;;;;;12.13;7.16;;;;;;2668693;76;20447;-90
2023/04/12 18:43:34;;;;;;;;;;;12.06;8.18;;;;;;2665924;76;20473;-91
2023/04/12 18:47:02;;;;;;;;;;;12.06;8.34;;;;;;2667102;76;20458;-91
2023/04/12 18:50:34;;;;;;;;;;;11.99;8.99;;;;;;2668456;76;20935;-91
2023/04/12 18:54:02;;;;;;;;;;;11.92;9.40;;;;;;2669902;76;20438;-92
2023/04/12 18:57:31;;;;;;;;;;;11.69;11.60;;;;;;2668555;76;20499;-91
2023/04/12 19:00:59;;;;;;;;;;;11.64;12.33;;;;;;2668935;76;20464;-91
2023/04/12 19:04:32;;;;;;;;;;;11.57;13.07;;;;;;2669781;76;20812;-92
2023/04/12 19:07:57;;;;;;;;;;;11.52;13.95;;;;;;2669665;76;20357;-90
2023/04/12 19:11:26;;;;;;;;;;;11.45;14.17;;;;;;2670276;76;20458;-92
2023/04/12 19:14:54;;;;;;;;;;;11.44;14.55;;;;;;2671087;76;20482;-92
2023/04/12 19:18:25;;;;;;;;;;;11.33;15.63;;;;;;2671056;76;20513;-93
2023/04/12 19:22:03;;;;;;;;;;;;;;;;;;;;;
2023/04/12 19:25:30;;;;;;;;;;;11.39;15.98;;;;;;2671691;76;20442;-91
2023/04/12 19:28:58;;;;;;;;;;;11.26;17.56;;;;;;2670741;76;20462;-92
2023/04/12 19:32:26;;;;;;;;;;;11.19;18.86;;;;;;2675574;76;20577;-94
2023/04/12 19:35:57;;;;;;;;;;;11.17;18.93;;;;;;2674448;76;20499;-92
2023/04/12 19:39:25;;;;;;;;;;;11.18;18.69;;;;;;2671120;76;20479;-90
2023/04/12 19:42:54;;;;;;;;;;;11.11;19.22;;;;;;2675543;76;20461;-90
2023/04/12 19:46:22;;;;;;;;;;;11.13;19.63;;;;;;2669635;76;20436;-91
2023/04/12 19:49:50;;;;;;;;;;;11.15;19.99;;;;;;2670036;76;20445;-90
2023/04/12 19:53:20;;;;;;;;;;;11.13;20.53;;;;;;2668334;76;20919;-91
2023/04/12 19:56:52;;;;;;;;;;;11.19;20.56;;;;;;2668483;76;20889;-91
2023/04/12 20:00:28;;;;;;;;;;;11.13;21.32;;;;;;2666110;76;21311;-92
2023/04/12 20:03:56;;;;;;;;;;;10.96;23.65;;;;;;2665131;76;20387;-90
2023/04/12 20:07:24;;;;;;;;;;;10.94;25.26;;;;;;2667806;76;20483;-91
2023/04/12 20:10:52;;;;;;;;;;;10.71;28.70;;;;;;2668954;76;20464;-90
2023/04/12 20:14:20;;;;;;;;;;;10.72;31.10;;;;;;2670098;76;20475;-92
2023/04/12 20:17:50;;;;;;;;;;;10.83;30.93;;;;;;2670632;76;20470;-92
2023/04/12 20:21:20;;;;;;;;;;;10.90;30.03;;;;;;2669649;76;20495;-93
2023/04/12 20:24:48;;;;;;;;;;;10.89;30.11;;;;;;2669574;76;20428;-93
2023/04/12 20:28:16;;;;;;;;;;;10.98;30.32;;;;;;2669823;76;20592;-92
2023/04/12 20:31:46;;;;;;;;;;;11.15;29.75;;;;;;2668225;76;20448;-92
2023/04/12 20:35:14;;;;;;;;;;;11.18;29.01;;;;;;2670281;76;20542;-92